Time;durP1;ratioP1;P1;durP2;ratioP2;P2;SDS_P1;SDS_P2;PMS_P1;PMS_P2;Temp;Humidity;BMP_temperature;BMP_pressure;BME280_temperature;BME280_humidity;BME280_pressure;Samples;Min_cycle;Max_cycle;Signal;HPM_P1;HPM_P2
2024/02/22 00:01:55;;;;;;;8.40;7.50;;;9.90;99.90;;;;;;5024108;28;20192;-72
2024/02/22 00:04:21;;;;;;;8.45;7.45;;;9.90;99.90;;;;;;5023227;28;20210;-70
2024/02/22 00:06:47;;;;;;;8.05;7.05;;;9.90;99.90;;;;;;5027227;28;20188;-71
2024/02/22 00:09:12;;;;;;;7.75;6.95;;;9.90;99.90;;;;;;5027004;28;20240;-75
2024/02/22 00:11:40;;;;;;;7.72;6.93;;;9.90;99.90;;;;;;5022216;28;20235;-72
2024/02/22 00:14:06;;;;;;;7.88;7.03;;;10.00;99.90;;;;;;5024465;28;20206;-74
2024/02/22 00:16:34;;;;;;;7.95;7.15;;;9.90;99.90;;;;;;5038216;28;20218;-74
2024/02/22 00:19:00;;;;;;;8.13;7.25;;;10.00;99.90;;;;;;5022987;28;20283;-73
2024/02/22 00:21:26;;;;;;;8.10;7.15;;;10.00;99.90;;;;;;5027251;28;20254;-73
2024/02/22 00:23:52;;;;;;;7.72;6.93;;;10.00;99.90;;;;;;5023520;28;20298;-71
2024/02/22 00:26:18;;;;;;;8.55;7.57;;;10.00;99.90;;;;;;5023775;28;20273;-70
2024/02/22 00:28:44;;;;;;;8.10;7.30;;;10.00;99.90;;;;;;5004894;28;20192;-71
2024/02/22 00:31:10;;;;;;;8.60;7.70;;;10.00;99.90;;;;;;5023352;28;20215;-75
2024/02/22 00:33:35;;;;;;;8.75;7.75;;;10.00;99.90;;;;;;5025049;28;20210;-70
2024/02/22 00:36:01;;;;;;;8.68;7.55;;;10.10;99.90;;;;;;5026679;28;20643;-73
2024/02/22 00:38:27;;;;;;;8.60;7.60;;;10.10;99.90;;;;;;5024486;28;20184;-73
2024/02/22 00:40:53;;;;;;;8.40;7.53;;;10.00;99.90;;;;;;5026644;28;20192;-74
2024/02/22 00:43:19;;;;;;;8.50;7.65;;;10.10;99.90;;;;;;5022817;28;20227;-72
2024/02/22 00:45:45;;;;;;;8.68;7.78;;;10.10;99.90;;;;;;5024700;28;20304;-71
2024/02/22 00:48:10;;;;;;;10.02;8.75;;;10.10;99.90;;;;;;5024992;28;20192;-72
2024/02/22 00:50:36;;;;;;;8.88;7.97;;;10.10;99.90;;;;;;5025530;28;20265;-75
2024/02/22 00:53:02;;;;;;;10.00;8.57;;;10.10;99.90;;;;;;5026724;28;20639;-72
2024/02/22 00:55:28;;;;;;;9.00;8.02;;;10.10;99.90;;;;;;5025293;28;20191;-72
2024/02/22 00:57:54;;;;;;;9.02;8.13;;;10.10;99.90;;;;;;5022561;28;20218;-70
2024/02/22 01:00:20;;;;;;;8.27;7.47;;;10.20;99.90;;;;;;5023340;28;20200;-72
2024/02/22 01:02:45;;;;;;;8.20;7.40;;;10.20;99.90;;;;;;5025307;28;20186;-74
2024/02/22 01:05:12;;;;;;;8.60;7.75;;;10.20;99.90;;;;;;5023000;28;20663;-75
2024/02/22 01:07:37;;;;;;;8.02;7.22;;;10.20;99.90;;;;;;5024241;28;20188;-73
2024/02/22 01:10:05;;;;;;;8.27;7.43;;;10.20;99.90;;;;;;5025999;28;20287;-71
2024/02/22 01:12:31;;;;;;;8.57;7.68;;;10.20;99.90;;;;;;5025600;28;20200;-73
2024/02/22 01:14:57;;;;;;;8.88;7.75;;;10.20;99.90;;;;;;5023322;28;20202;-73
2024/02/22 01:17:22;;;;;;;9.27;7.88;;;10.20;99.90;;;;;;5024843;28;20666;-74
2024/02/22 01:19:48;;;;;;;9.45;7.72;;;10.20;99.90;;;;;;5024799;28;20187;-73
2024/02/22 01:22:14;;;;;;;8.98;7.70;;;10.20;99.90;;;;;;5022183;28;20196;-73
2024/02/22 01:24:40;;;;;;;8.63;7.70;;;10.20;99.90;;;;;;5023244;28;20200;-72
2024/02/22 01:27:07;;;;;;;10.13;7.97;;;10.20;99.90;;;;;;5025280;28;20188;-70
2024/02/22 01:29:34;;;;;;;7.85;6.95;;;10.20;99.90;;;;;;5024181;28;20199;-71
2024/02/22 01:32:00;;;;;;;10.57;7.68;;;10.20;99.90;;;;;;5024090;28;20220;-74
2024/02/22 01:34:25;;;;;;;9.40;7.85;;;10.20;99.90;;;;;;5021900;28;20254;-73
2024/02/22 01:36:51;;;;;;;8.93;7.30;;;10.20;99.90;;;;;;5006855;28;20568;-72
2024/02/22 01:39:17;;;;;;;9.68;7.80;;;10.20;99.90;;;;;;5027241;28;20237;-72
2024/02/22 01:41:43;;;;;;;8.57;7.30;;;10.30;99.90;;;;;;5026152;28;20220;-71
2024/02/22 01:44:09;;;;;;;9.13;7.75;;;10.30;99.90;;;;;;5023553;28;20200;-73
2024/02/22 01:46:37;;;;;;;9.95;8.02;;;10.30;99.90;;;;;;5007132;28;20192;-71
2024/02/22 01:49:05;;;;;;;9.32;7.63;;;10.30;99.90;;;;;;5027214;28;20545;-72
2024/02/22 01:51:32;;;;;;;9.95;8.02;;;10.30;99.90;;;;;;5027489;28;20584;-69
2024/02/22 01:53:59;;;;;;;12.02;8.90;;;10.30;99.90;;;;;;5027305;28;20187;-73
2024/02/22 01:56:25;;;;;;;10.65;8.75;;;10.30;99.90;;;;;;5024822;28;20675;-72
2024/02/22 01:58:52;;;;;;;10.48;8.50;;;10.30;99.90;;;;;;5025160;28;20196;-70
2024/02/22 02:01:22;;;;;;;11.45;8.98;;;10.30;99.90;;;;;;5026146;28;20188;-72
2024/02/22 02:03:49;;;;;;;11.88;9.10;;;10.40;99.90;;;;;;5025958;28;20222;-72
2024/02/22 02:06:16;;;;;;;12.23;9.40;;;10.40;99.90;;;;;;5025114;28;20200;-71
2024/02/22 02:08:41;;;;;;;12.60;9.30;;;10.40;99.90;;;;;;5025843;28;20211;-72
2024/02/22 02:11:07;;;;;;;12.43;9.73;;;10.40;99.90;;;;;;5027682;28;20236;-74
2024/02/22 02:13:33;;;;;;;14.13;10.20;;;10.40;99.90;;;;;;5026079;28;20261;-70
2024/02/22 02:15:59;;;;;;;13.90;10.05;;;10.40;99.90;;;;;;5024373;28;20287;-73
2024/02/22 02:18:25;;;;;;;13.82;9.98;;;10.40;99.90;;;;;;5023460;28;20187;-73
2024/02/22 02:21:05;;;;;;;12.68;10.02;;;10.40;99.90;;;;;;5025380;28;20531;-73
2024/02/22 02:23:53;;;;;;;14.05;10.55;;;10.40;99.90;;;;;;5026078;28;20187;-73
2024/02/22 02:26:20;;;;;;;16.83;11.45;;;10.40;99.90;;;;;;5026635;28;20179;-71
2024/02/22 02:28:45;;;;;;;17.67;12.15;;;10.50;99.90;;;;;;5023402;28;20200;-75
2024/02/22 02:31:11;;;;;;;16.75;12.63;;;10.50;99.90;;;;;;5025740;28;20261;-72
2024/02/22 02:33:37;;;;;;;17.67;13.18;;;10.50;99.90;;;;;;5028493;28;20190;-72
2024/02/22 02:36:03;;;;;;;18.77;12.75;;;10.50;99.90;;;;;;5024874;28;20188;-71
2024/02/22 02:38:29;;;;;;;20.00;13.77;;;10.50;99.90;;;;;;4994758;28;20251;-76
2024/02/22 02:40:54;;;;;;;19.60;13.82;;;10.50;99.90;;;;;;5027072;28;20230;-70
2024/02/22 02:43:20;;;;;;;23.10;14.10;;;10.60;99.90;;;;;;5023286;28;20191;-72
2024/02/22 02:45:46;;;;;;;22.02;14.07;;;10.50;99.90;;;;;;5024860;28;20237;-75
2024/02/22 02:48:14;;;;;;;22.90;14.85;;;10.50;99.90;;;;;;5025198;28;20588;-72
2024/02/22 02:50:39;;;;;;;26.25;15.65;;;10.50;99.90;;;;;;5023532;28;20702;-73
2024/02/22 02:53:05;;;;;;;29.85;16.20;;;10.60;99.90;;;;;;5024316;28;20188;-69
2024/02/22 02:55:31;;;;;;;30.63;16.45;;;10.60;99.90;;;;;;5023738;28;20246;-72
2024/02/22 02:57:58;;;;;;;32.67;16.85;;;10.60;99.90;;;;;;5024199;28;20571;-73
2024/02/22 03:00:23;;;;;;;36.15;18.10;;;10.60;99.90;;;;;;5026434;28;20279;-75
2024/02/22 03:02:49;;;;;;;39.35;18.73;;;10.60;99.90;;;;;;5027602;28;20294;-71
2024/02/22 03:05:15;;;;;;;33.22;18.10;;;10.60;99.90;;;;;;5023781;28;20172;-71
2024/02/22 03:07:40;;;;;;;39.65;18.45;;;10.60;99.90;;;;;;5025502;28;20203;-74
2024/02/22 03:10:07;;;;;;;39.33;19.40;;;10.60;99.90;;;;;;5023224;28;20203;-70
2024/02/22 03:12:33;;;;;;;44.58;19.50;;;10.60;99.90;;;;;;5024060;28;20285;-71
2024/02/22 03:15:00;;;;;;;49.38;21.00;;;10.60;99.90;;;;;;5025980;28;20203;-71
2024/02/22 03:17:26;;;;;;;50.28;22.25;;;10.60;99.90;;;;;;5026303;28;20595;-72
2024/02/22 03:19:52;;;;;;;53.92;22.40;;;10.60;99.90;;;;;;5022869;28;20184;-72
2024/02/22 03:22:19;;;;;;;54.50;21.48;;;10.60;99.90;;;;;;5025091;28;20317;-71
2024/02/22 03:24:45;;;;;;;57.72;21.88;;;10.60;99.90;;;;;;5008679;28;20264;-71
2024/02/22 03:27:11;;;;;;;50.55;21.70;;;10.60;99.90;;;;;;5025325;28;20194;-71
2024/02/22 03:29:41;;;;;;;61.47;22.13;;;10.60;99.90;;;;;;5025259;28;20196;-73
2024/02/22 03:32:07;;;;;;;66.55;22.92;;;10.60;99.90;;;;;;5008044;28;20219;-73
2024/02/22 03:34:33;;;;;;;70.63;23.10;;;10.60;99.90;;;;;;5024362;28;20187;-72
2024/02/22 03:37:00;;;;;;;68.30;22.88;;;10.60;99.90;;;;;;5024876;28;20616;-74
2024/02/22 03:39:27;;;;;;;65.15;22.67;;;10.60;99.90;;;;;;5026418;28;20195;-74
2024/02/22 03:41:53;;;;;;;82.93;24.13;;;10.60;99.90;;;;;;5025497;28;20454;-73
2024/02/22 03:44:18;;;;;;;85.18;25.00;;;10.60;99.90;;;;;;5024811;28;20190;-74
2024/02/22 03:46:48;;;;;;;88.07;25.25;;;10.60;99.90;;;;;;5024438;28;20193;-73
2024/02/22 03:49:14;;;;;;;82.50;26.10;;;10.60;99.90;;;;;;5024538;28;20184;-74
2024/02/22 03:51:40;;;;;;;97.88;25.33;;;10.60;99.90;;;;;;5026602;28;20204;-74
2024/02/22 03:54:06;;;;;;;88.95;24.55;;;10.60;99.90;;;;;;5022171;28;20195;-70
2024/02/22 03:56:33;;;;;;;83.05;24.50;;;10.60;99.90;;;;;;5020807;28;20196;-73
2024/02/22 03:58:59;;;;;;;79.78;25.08;;;10.60;99.90;;;;;;5023876;28;20204;-74
2024/02/22 04:01:25;;;;;;;97.95;26.40;;;10.60;99.90;;;;;;5022861;28;20262;-72
2024/02/22 04:03:51;;;;;;;81.90;26.17;;;10.60;99.90;;;;;;5023524;28;20195;-70
2024/02/22 04:06:17;;;;;;;108.93;27.27;;;10.60;99.90;;;;;;5006397;28;20188;-76
2024/02/22 04:08:43;;;;;;;110.75;27.05;;;10.60;99.90;;;;;;5023319;28;20192;-74
2024/02/22 04:11:09;;;;;;;119.38;28.15;;;10.60;99.90;;;;;;5026926;28;20235;-73
2024/02/22 04:13:38;;;;;;;103.70;27.27;;;10.60;99.90;;;;;;5025835;28;20199;-74
2024/02/22 04:16:07;;;;;;;102.38;28.10;;;10.60;99.90;;;;;;5024190;28;20183;-73
2024/02/22 04:18:33;;;;;;;145.20;28.17;;;10.60;99.90;;;;;;5023229;28;20595;-75
2024/02/22 04:21:00;;;;;;;124.45;27.52;;;10.60;99.90;;;;;;5024821;28;20221;-72
2024/02/22 04:23:26;;;;;;;115.82;27.60;;;10.60;99.90;;;;;;5023730;28;20219;-75
2024/02/22 04:25:52;;;;;;;100.15;29.40;;;10.60;99.90;;;;;;5028102;28;21065;-74
2024/02/22 04:28:18;;;;;;;125.05;28.63;;;10.60;99.90;;;;;;5024284;28;20199;-70
2024/02/22 04:30:47;;;;;;;132.93;32.17;;;10.60;99.90;;;;;;5035833;28;20444;-75
2024/02/22 04:33:14;;;;;;;122.72;29.27;;;10.70;99.90;;;;;;5023995;28;20651;-73
2024/02/22 04:35:44;;;;;;;112.85;28.65;;;10.70;99.90;;;;;;5023224;28;20211;-75
2024/02/22 04:38:10;;;;;;;103.85;27.52;;;10.70;99.90;;;;;;5022825;28;20219;-76
2024/02/22 04:40:43;;;;;;;105.25;28.65;;;10.70;99.90;;;;;;5023602;28;20565;-71
2024/02/22 04:43:09;;;;;;;94.55;27.35;;;10.70;99.90;;;;;;5024900;28;20208;-74
2024/02/22 04:45:35;;;;;;;139.32;27.73;;;10.70;99.90;;;;;;5023878;28;20188;-72
2024/02/22 04:48:01;;;;;;;119.53;27.80;;;10.70;99.90;;;;;;5021315;28;20203;-74
2024/02/22 04:50:27;;;;;;;138.30;27.58;;;10.70;99.90;;;;;;5021346;28;20298;-74
2024/02/22 04:52:53;;;;;;;123.88;28.52;;;10.70;99.90;;;;;;5025461;28;20946;-76
2024/02/22 04:55:19;;;;;;;105.93;27.02;;;10.70;99.90;;;;;;5025900;28;20274;-73
2024/02/22 04:57:47;;;;;;;165.88;29.08;;;10.70;99.90;;;;;;5024697;28;20651;-73
2024/02/22 05:00:13;;;;;;;149.93;28.73;;;10.60;99.90;;;;;;5021042;28;20522;-77
2024/02/22 05:02:39;;;;;;;154.10;28.02;;;10.60;99.90;;;;;;5023463;28;20188;-74
2024/02/22 05:05:06;;;;;;;139.25;27.55;;;10.70;99.90;;;;;;5005013;28;20886;-74
2024/02/22 05:07:33;;;;;;;116.82;27.73;;;10.70;99.90;;;;;;5023451;28;20213;-75
2024/02/22 05:10:00;;;;;;;93.15;25.20;;;10.70;99.90;;;;;;5023773;28;20184;-73
2024/02/22 05:12:26;;;;;;;121.43;27.27;;;10.70;99.90;;;;;;5027362;28;20219;-74
2024/02/22 05:14:52;;;;;;;87.15;25.80;;;10.70;99.90;;;;;;5027900;28;20639;-76
2024/02/22 05:17:19;;;;;;;83.10;25.00;;;10.70;99.90;;;;;;5029377;28;20219;-75
2024/02/22 05:19:45;;;;;;;81.43;23.23;;;10.70;99.90;;;;;;5028144;28;20703;-74
2024/02/22 05:22:10;;;;;;;68.03;23.10;;;10.80;99.90;;;;;;5025680;28;20282;-75
2024/02/22 05:24:36;;;;;;;72.28;22.55;;;10.80;99.90;;;;;;5027096;28;20195;-75
2024/02/22 05:27:02;;;;;;;72.22;21.65;;;10.80;99.90;;;;;;5012359;28;20187;-76
2024/02/22 05:29:28;;;;;;;85.95;22.52;;;10.80;99.90;;;;;;5026020;28;20644;-74
2024/02/22 05:31:57;;;;;;;65.70;21.63;;;10.80;99.90;;;;;;5027135;28;20228;-75
2024/02/22 05:34:25;;;;;;;56.92;20.45;;;10.80;99.90;;;;;;5025860;28;20211;-75
2024/02/22 05:36:51;;;;;;;61.00;20.50;;;10.80;99.90;;;;;;5025747;28;20562;-75
2024/02/22 05:39:17;;;;;;;53.92;18.88;;;10.80;99.90;;;;;;5027645;28;21174;-76
2024/02/22 05:41:43;;;;;;;46.35;17.80;;;10.90;99.90;;;;;;5023937;28;20200;-74
2024/02/22 05:44:09;;;;;;;48.38;17.63;;;10.80;99.90;;;;;;5025841;28;20199;-76
2024/02/22 05:46:34;;;;;;;41.67;17.80;;;10.90;99.90;;;;;;5009776;28;20610;-74
2024/02/22 05:49:00;;;;;;;33.92;16.13;;;10.90;99.90;;;;;;5029379;28;20192;-73
2024/02/22 05:51:28;;;;;;;34.97;15.93;;;10.90;99.90;;;;;;5029147;28;20220;-73
2024/02/22 05:53:54;;;;;;;35.28;15.63;;;10.90;99.90;;;;;;5024721;28;20221;-74
2024/02/22 05:56:20;;;;;;;35.80;15.43;;;10.90;99.90;;;;;;5026676;28;20199;-73
2024/02/22 05:58:46;;;;;;;32.60;15.80;;;10.90;99.90;;;;;;5028665;28;20192;-72
2024/02/22 06:01:15;;;;;;;30.90;14.95;;;10.90;99.90;;;;;;5024572;28;20196;-74
2024/02/22 06:03:41;;;;;;;29.10;14.90;;;10.90;99.90;;;;;;5028765;28;20215;-73
2024/02/22 06:06:07;;;;;;;24.35;13.48;;;10.90;99.90;;;;;;5024191;28;20218;-76
2024/02/22 06:08:33;;;;;;;27.02;13.88;;;10.90;99.90;;;;;;5023029;28;20310;-74
2024/02/22 06:11:00;;;;;;;29.17;13.65;;;10.90;99.90;;;;;;5026280;28;20231;-73
2024/02/22 06:13:25;;;;;;;26.60;13.10;;;10.90;99.90;;;;;;5033350;28;20596;-71
2024/02/22 06:15:51;;;;;;;23.67;12.35;;;10.90;99.90;;;;;;5032125;28;20199;-77
2024/02/22 06:18:17;;;;;;;20.02;11.40;;;10.90;99.90;;;;;;5030869;28;20653;-75
2024/02/22 06:20:43;;;;;;;19.63;11.52;;;10.90;99.90;;;;;;5009289;28;20238;-76
2024/02/22 06:23:09;;;;;;;17.55;10.68;;;10.90;99.90;;;;;;5028752;28;20210;-71
2024/02/22 06:25:38;;;;;;;17.38;10.73;;;10.90;99.90;;;;;;5012126;28;20195;-73
2024/02/22 06:28:04;;;;;;;17.58;10.80;;;10.90;99.90;;;;;;5030617;28;20682;-72
2024/02/22 06:30:30;;;;;;;20.58;12.23;;;10.90;99.90;;;;;;5007592;28;20220;-75
2024/02/22 06:32:57;;;;;;;21.80;12.70;;;10.80;99.90;;;;;;5024131;28;21351;-73
2024/02/22 06:35:23;;;;;;;25.10;13.88;;;10.90;99.90;;;;;;5012733;28;20208;-73
2024/02/22 06:37:51;;;;;;;35.92;16.50;;;10.90;99.90;;;;;;5027003;28;20187;-76
2024/02/22 06:40:17;;;;;;;38.65;17.27;;;10.80;99.90;;;;;;5029936;28;20698;-77
2024/02/22 06:42:43;;;;;;;38.60;17.48;;;10.80;99.90;;;;;;5032324;28;20215;-77
2024/02/22 06:45:12;;;;;;;41.53;18.35;;;10.80;99.90;;;;;;5030556;28;20231;-76
2024/02/22 06:47:38;;;;;;;40.03;17.75;;;10.80;99.90;;;;;;5030568;28;20196;-75
2024/02/22 06:50:05;;;;;;;56.78;22.10;;;10.80;99.90;;;;;;5016452;28;20246;-77
2024/02/22 06:52:35;;;;;;;61.47;25.17;;;10.80;99.90;;;;;;5031892;28;20218;-79
2024/02/22 06:55:00;;;;;;;67.55;26.65;;;10.80;99.90;;;;;;5029729;28;20599;-76
2024/02/22 06:57:26;;;;;;;64.18;26.10;;;10.80;99.90;;;;;;5027474;28;20202;-74
2024/02/22 06:59:52;;;;;;;81.40;27.73;;;10.80;99.90;;;;;;5028481;28;20192;-77
2024/02/22 07:02:18;;;;;;;87.28;28.38;;;10.80;99.90;;;;;;5028195;28;20536;-79
2024/02/22 07:04:47;;;;;;;78.03;27.33;;;10.80;99.90;;;;;;5008090;28;20222;-76
2024/02/22 07:07:15;;;;;;;70.70;27.35;;;10.80;99.90;;;;;;5027524;28;20195;-72
2024/02/22 07:09:41;;;;;;;75.18;27.58;;;10.70;99.90;;;;;;5028251;28;20209;-73
2024/02/22 07:12:08;;;;;;;84.13;26.95;;;10.70;99.90;;;;;;5028544;28;20231;-74
2024/02/22 07:14:36;;;;;;;70.47;25.67;;;10.80;99.90;;;;;;5025939;28;20195;-74
2024/02/22 07:17:04;;;;;;;73.68;24.65;;;10.80;99.90;;;;;;5022436;28;20184;-75
2024/02/22 07:19:30;;;;;;;50.30;20.02;;;10.80;99.90;;;;;;5013235;28;20271;-76
2024/02/22 07:21:56;;;;;;;58.67;21.88;;;10.80;99.90;;;;;;4993397;28;20273;-76
2024/02/22 07:24:22;;;;;;;63.42;19.92;;;10.80;99.90;;;;;;5026496;28;20183;-75
2024/02/22 07:26:50;;;;;;;52.75;16.88;;;10.80;99.90;;;;;;5028455;28;20203;-75
2024/02/22 07:29:17;;;;;;;48.25;15.75;;;10.80;99.90;;;;;;5029193;28;20200;-73
2024/02/22 07:31:43;;;;;;;40.33;13.65;;;10.80;99.90;;;;;;5026554;28;20212;-73
2024/02/22 07:34:09;;;;;;;46.17;13.50;;;10.80;99.90;;;;;;5024131;28;20671;-73
2024/02/22 07:36:35;;;;;;;40.03;11.90;;;10.80;99.90;;;;;;5028727;28;20191;-74
2024/02/22 07:39:01;;;;;;;44.75;12.90;;;10.80;99.90;;;;;;5024140;28;20433;-71
2024/02/22 07:41:30;;;;;;;35.70;10.98;;;10.90;99.90;;;;;;5027123;28;20196;-75
2024/02/22 07:43:59;;;;;;;40.78;10.57;;;10.90;99.90;;;;;;5011968;28;20797;-75
2024/02/22 07:46:25;;;;;;;47.22;9.88;;;11.10;99.90;;;;;;5027420;28;20227;-76
2024/02/22 07:48:51;;;;;;;31.70;9.50;;;11.10;99.90;;;;;;5029266;28;20187;-72
2024/02/22 07:51:16;;;;;;;36.85;9.65;;;11.10;99.90;;;;;;5028015;28;20984;-73
2024/02/22 07:53:42;;;;;;;36.13;8.95;;;11.10;99.90;;;;;;5025780;28;20185;-71
2024/02/22 07:56:10;;;;;;;32.63;8.40;;;11.10;99.90;;;;;;5039446;28;20196;-72
2024/02/22 07:58:53;;;;;;;39.25;8.23;;;11.10;99.90;;;;;;5025955;28;20195;-76
2024/02/22 08:01:18;;;;;;;36.70;7.82;;;11.10;99.90;;;;;;5030746;28;20738;-76
2024/02/22 08:03:45;;;;;;;33.75;7.50;;;11.10;99.90;;;;;;5028264;28;20183;-75
2024/02/22 08:06:13;;;;;;;29.48;7.07;;;11.10;99.90;;;;;;5030573;28;20192;-74
2024/02/22 08:08:39;;;;;;;33.78;6.93;;;11.10;99.90;;;;;;5024764;28;20188;-77
2024/02/22 08:11:07;;;;;;;29.75;5.65;;;11.20;99.90;;;;;;5032180;28;20599;-75
2024/02/22 08:13:33;;;;;;;32.00;6.30;;;11.20;99.90;;;;;;5028234;28;20215;-72
2024/02/22 08:16:07;;;;;;;29.67;6.22;;;11.30;99.90;;;;;;5026624;28;20234;-74
2024/02/22 08:18:33;;;;;;;29.50;6.57;;;11.30;99.90;;;;;;5026191;28;20647;-75
2024/02/22 08:21:00;;;;;;;30.55;5.65;;;11.40;99.90;;;;;;5029705;28;21176;-75
2024/02/22 08:23:26;;;;;;;30.25;6.30;;;11.50;99.90;;;;;;5026194;28;20183;-76
2024/02/22 08:25:52;;;;;;;33.72;6.28;;;11.60;99.90;;;;;;5027370;28;20298;-74
2024/02/22 08:28:22;;;;;;;33.78;6.65;;;11.70;99.90;;;;;;5033396;28;20672;-76
2024/02/22 08:30:47;;;;;;;33.50;6.68;;;11.70;99.90;;;;;;5028443;28;20214;-76
2024/02/22 08:33:14;;;;;;;27.58;5.90;;;11.80;99.90;;;;;;5030913;28;20188;-74
2024/02/22 08:35:41;;;;;;;23.80;5.97;;;11.80;99.90;;;;;;5031293;28;20211;-73
2024/02/22 08:38:08;;;;;;;30.80;5.53;;;11.90;99.90;;;;;;5028807;28;20622;-75
2024/02/22 08:40:34;;;;;;;30.65;5.90;;;11.90;99.90;;;;;;5028678;28;20290;-72
2024/02/22 08:43:03;;;;;;;28.75;5.50;;;11.90;99.90;;;;;;5030967;28;20639;-72
2024/02/22 08:45:32;;;;;;;24.63;5.57;;;11.90;99.90;;;;;;5028298;28;20203;-73
2024/02/22 08:47:58;;;;;;;27.35;5.32;;;11.90;99.90;;;;;;5029930;28;20369;-76
2024/02/22 08:50:23;;;;;;;25.60;5.20;;;11.90;99.90;;;;;;5028538;28;20290;-75
2024/02/22 08:52:50;;;;;;;29.52;5.35;;;11.90;99.90;;;;;;5027399;28;20200;-75
2024/02/22 08:55:16;;;;;;;29.92;5.45;;;11.90;99.90;;;;;;5028573;28;20203;-77
2024/02/22 08:57:42;;;;;;;32.55;6.10;;;11.90;99.90;;;;;;5030943;28;20199;-76
2024/02/22 09:00:10;;;;;;;33.60;5.57;;;12.00;99.90;;;;;;5028609;28;20194;-75
2024/02/22 09:02:37;;;;;;;26.92;5.05;;;12.00;99.90;;;;;;5028196;28;20616;-74
2024/02/22 09:05:04;;;;;;;24.20;5.65;;;12.10;99.90;;;;;;5027823;28;20185;-73
2024/02/22 09:07:31;;;;;;;31.70;6.63;;;12.20;99.90;;;;;;5029551;28;20192;-75
2024/02/22 09:09:56;;;;;;;24.60;5.60;;;12.30;99.90;;;;;;4992762;28;20727;-77
2024/02/22 09:12:22;;;;;;;22.42;5.40;;;12.30;99.90;;;;;;5025645;28;20262;-79
2024/02/22 09:14:48;;;;;;;26.20;5.70;;;12.40;99.90;;;;;;5027708;28;20295;-75
2024/02/22 09:17:14;;;;;;;29.23;5.45;;;12.50;99.90;;;;;;5027238;28;20592;-71
2024/02/22 09:19:40;;;;;;;44.55;7.20;;;12.50;99.90;;;;;;5042236;28;20184;-72
2024/02/22 09:22:05;;;;;;;44.72;5.72;;;12.60;99.90;;;;;;5027820;28;20213;-75
2024/02/22 09:24:31;;;;;;;29.23;6.00;;;12.50;99.90;;;;;;5031947;28;20278;-73
2024/02/22 09:26:57;;;;;;;25.75;5.30;;;12.50;99.90;;;;;;5039815;28;20191;-75
2024/02/22 09:29:26;;;;;;;26.98;5.20;;;12.60;99.90;;;;;;5028554;28;20253;-73
2024/02/22 09:31:55;;;;;;;32.35;5.57;;;12.60;99.90;;;;;;5026919;28;20212;-76
2024/02/22 09:34:24;;;;;;;32.58;6.03;;;12.70;99.90;;;;;;5030490;28;20711;-76
2024/02/22 09:36:50;;;;;;;28.05;5.70;;;12.70;99.90;;;;;;5029940;28;20192;-73
2024/02/22 09:39:16;;;;;;;27.13;7.43;;;12.70;99.90;;;;;;5027584;28;20202;-73
2024/02/22 09:41:43;;;;;;;22.65;5.95;;;12.80;99.90;;;;;;5033662;28;20195;-73
2024/02/22 09:44:10;;;;;;;27.50;6.47;;;12.70;99.90;;;;;;5029003;28;20204;-73
2024/02/22 09:46:38;;;;;;;25.67;6.32;;;12.80;99.90;;;;;;5020802;28;20204;-76
2024/02/22 09:49:03;;;;;;;27.77;6.65;;;12.80;99.90;;;;;;5024971;28;20202;-75
2024/02/22 09:51:54;;;;;;;24.40;5.78;;;12.90;99.90;;;;;;5023144;28;20254;-69
2024/02/22 09:54:21;;;;;;;25.00;6.60;;;12.90;99.90;;;;;;5025404;28;20188;-71
2024/02/22 09:56:48;;;;;;;24.33;6.63;;;12.90;99.90;;;;;;5022953;28;20180;-70
2024/02/22 09:59:16;;;;;;;27.23;6.45;;;12.90;99.90;;;;;;5009687;28;20632;-70
2024/02/22 10:01:43;;;;;;;35.25;6.82;;;12.90;99.90;;;;;;5026618;28;20199;-68
2024/02/22 10:04:16;;;;;;;31.30;7.50;;;12.90;99.90;;;;;;5024335;28;20600;-70
2024/02/22 10:06:42;;;;;;;20.63;5.60;;;12.90;99.90;;;;;;5026993;28;20245;-69
2024/02/22 10:09:11;;;;;;;32.72;6.80;;;13.00;99.90;;;;;;5023365;28;20191;-68
2024/02/22 10:11:44;;;;;;;29.20;6.50;;;13.00;99.90;;;;;;5029955;28;20339;-68
2024/02/22 10:14:13;;;;;;;28.88;6.32;;;13.00;99.90;;;;;;5024567;28;20242;-70
2024/02/22 10:16:45;;;;;;;31.73;6.90;;;13.00;99.90;;;;;;5027274;28;20210;-69
2024/02/22 10:19:15;;;;;;;26.88;6.72;;;13.00;99.90;;;;;;5027952;28;20192;-68
2024/02/22 10:21:41;;;;;;;26.55;7.07;;;13.00;99.90;;;;;;5025675;28;20310;-69
2024/02/22 10:24:08;;;;;;;19.55;6.03;;;12.90;99.90;;;;;;5024549;28;20270;-70
2024/02/22 10:26:34;;;;;;;24.92;7.00;;;13.00;99.90;;;;;;5028920;28;20192;-69
2024/02/22 10:29:07;;;;;;;26.85;7.05;;;13.00;99.90;;;;;;5025641;28;20566;-69
2024/02/22 10:32:01;;;;;;;27.02;7.63;;;13.00;99.90;;;;;;5025944;28;20265;-69
2024/02/22 10:34:26;;;;;;;25.85;7.55;;;13.00;99.90;;;;;;5030004;28;20196;-67
2024/02/22 10:36:54;;;;;;;21.92;6.85;;;13.00;99.90;;;;;;5025297;28;20197;-68
2024/02/22 10:39:23;;;;;;;25.30;7.45;;;13.00;99.90;;;;;;5011597;28;20291;-69
2024/02/22 10:41:51;;;;;;;20.27;6.82;;;13.00;99.90;;;;;;5025012;28;20200;-70
2024/02/22 10:44:16;;;;;;;29.88;8.45;;;13.10;99.90;;;;;;5027968;28;20229;-70
2024/02/22 10:46:44;;;;;;;27.52;7.63;;;13.10;99.90;;;;;;5028333;28;20224;-70
2024/02/22 10:49:13;;;;;;;33.30;9.32;;;13.20;99.90;;;;;;5028511;28;20663;-66
2024/02/22 10:51:40;;;;;;;22.98;8.02;;;13.20;99.90;;;;;;5031117;28;20642;-69
2024/02/22 10:54:10;;;;;;;25.73;7.75;;;13.30;99.90;;;;;;5027444;28;20206;-69
2024/02/22 10:56:40;;;;;;;26.05;9.00;;;13.30;99.90;;;;;;5027909;28;20219;-67
2024/02/22 10:59:09;;;;;;;36.40;10.80;;;13.20;99.90;;;;;;5025995;28;20271;-67
2024/02/22 11:01:38;;;;;;;28.20;9.13;;;13.20;99.90;;;;;;5030867;28;20659;-69
2024/02/22 11:04:04;;;;;;;28.27;9.05;;;13.30;99.90;;;;;;5030565;28;20642;-69
2024/02/22 11:06:41;;;;;;;24.42;8.73;;;13.30;99.90;;;;;;5026056;28;21205;-69
2024/02/22 11:09:25;;;;;;;29.58;12.02;;;13.30;99.90;;;;;;5027777;28;20191;-70
2024/02/22 11:11:52;;;;;;;30.80;12.98;;;13.30;99.90;;;;;;5026754;28;20262;-70
2024/02/22 11:14:28;;;;;;;25.65;9.55;;;13.30;99.90;;;;;;5024152;28;20195;-70
2024/02/22 11:16:54;;;;;;;24.02;8.20;;;13.30;99.90;;;;;;5026824;28;20191;-68
2024/02/22 11:19:25;;;;;;;22.67;8.70;;;13.40;99.90;;;;;;5028148;28;20495;-69
2024/02/22 11:21:51;;;;;;;23.77;8.48;;;13.40;99.90;;;;;;5025533;28;20200;-71
2024/02/22 11:24:21;;;;;;;23.52;8.65;;;13.50;99.90;;;;;;5025454;28;20207;-70
2024/02/22 11:26:47;;;;;;;21.10;7.47;;;13.60;99.90;;;;;;5009236;28;20233;-68
2024/02/22 11:29:13;;;;;;;20.73;9.23;;;13.50;99.90;;;;;;5026407;28;20269;-69
2024/02/22 11:31:39;;;;;;;21.55;8.43;;;13.60;99.90;;;;;;5028897;28;20215;-69
2024/02/22 11:34:04;;;;;;;17.23;8.45;;;13.60;99.90;;;;;;5026613;28;20206;-69
2024/02/22 11:36:30;;;;;;;22.10;8.43;;;13.60;99.90;;;;;;5027750;28;20199;-69
2024/02/22 11:39:00;;;;;;;20.70;8.75;;;13.70;99.90;;;;;;5024791;28;21035;-69
2024/02/22 11:41:30;;;;;;;22.73;8.38;;;13.80;99.90;;;;;;5026382;28;20294;-69
2024/02/22 11:44:03;;;;;;;18.35;7.35;;;13.90;99.90;;;;;;5026010;28;20651;-69
2024/02/22 11:46:36;;;;;;;17.27;8.32;;;13.90;99.90;;;;;;5023769;28;20203;-71
2024/02/22 11:49:06;;;;;;;23.85;8.40;;;13.90;99.90;;;;;;5026153;28;20231;-70
2024/02/22 11:51:32;;;;;;;20.42;8.50;;;14.00;99.90;;;;;;5025721;28;20219;-69
2024/02/22 11:53:58;;;;;;;17.60;9.20;;;14.00;99.90;;;;;;5022793;28;20188;-69
2024/02/22 11:56:25;;;;;;;24.17;8.85;;;14.00;99.90;;;;;;5023629;28;20273;-69
2024/02/22 11:58:51;;;;;;;20.58;8.13;;;14.10;99.90;;;;;;5027215;28;20207;-70
2024/02/22 12:01:18;;;;;;;18.25;8.05;;;14.20;99.90;;;;;;5025003;28;20246;-69
2024/02/22 12:03:46;;;;;;;12.45;7.07;;;14.20;99.90;;;;;;5023971;28;20567;-70
2024/02/22 12:06:14;;;;;;;16.08;7.57;;;14.30;99.90;;;;;;5026597;28;20200;-70
2024/02/22 12:08:44;;;;;;;14.30;7.55;;;14.30;99.90;;;;;;5026223;28;20199;-68
2024/02/22 12:11:12;;;;;;;19.38;8.85;;;14.30;99.90;;;;;;5024064;28;20660;-70
2024/02/22 12:13:38;;;;;;;15.30;7.75;;;14.30;99.90;;;;;;5007157;28;20188;-70
2024/02/22 12:16:08;;;;;;;15.90;7.60;;;14.30;99.90;;;;;;5024428;28;20674;-70
2024/02/22 12:18:39;;;;;;;15.25;7.78;;;14.20;99.90;;;;;;5023913;28;20191;-71
2024/02/22 12:21:11;;;;;;;15.10;7.93;;;14.20;99.90;;;;;;5023779;28;20721;-70
2024/02/22 12:23:36;;;;;;;13.77;7.70;;;14.10;99.90;;;;;;5022305;28;20202;-71
2024/02/22 12:26:08;;;;;;;12.50;6.32;;;14.10;99.90;;;;;;5024458;28;20191;-69
2024/02/22 12:28:37;;;;;;;13.93;6.20;;;14.00;99.90;;;;;;5029056;28;20248;-69
2024/02/22 12:31:04;;;;;;;14.00;5.97;;;14.00;99.90;;;;;;5024223;28;21158;-69
2024/02/22 12:33:33;;;;;;;9.88;5.57;;;14.00;99.90;;;;;;5007118;28;20394;-68